sensor_id;sensor_type;location;lat;lon;timestamp;temperature;humidity
70928;SHT31;58587;53.034;18.576;2022-12-18T00:01:36;-3.51;91.40
70928;SHT31;58587;53.034;18.576;2022-12-18T00:04:04;-3.61;91.08
70928;SHT31;58587;53.034;18.576;2022-12-18T00:06:30;-3.64;91.14
70928;SHT31;58587;53.034;18.576;2022-12-18T00:08:57;-3.68;90.99
70928;SHT31;58587;53.034;18.576;2022-12-18T00:11:25;-3.75;90.89
70928;SHT31;58587;53.034;18.576;2022-12-18T00:13:53;-3.79;91.11
70928;SHT31;58587;53.034;18.576;2022-12-18T00:16:20;-3.88;91.02
70928;SHT31;58587;53.034;18.576;2022-12-18T00:18:47;-3.88;90.93
70928;SHT31;58587;53.034;18.576;2022-12-18T00:21:13;-3.92;90.39
70928;SHT31;58587;53.034;18.576;2022-12-18T00:23:40;-4.01;90.47
70928;SHT31;58587;53.034;18.576;2022-12-18T00:26:10;-4.05;90.37
70928;SHT31;58587;53.034;18.576;2022-12-18T00:28:36;-4.09;90.26
70928;SHT31;58587;53.034;18.576;2022-12-18T00:31:15;-4.15;90.40
70928;SHT31;58587;53.034;18.576;2022-12-18T00:33:41;-4.17;90.28
70928;SHT31;58587;53.034;18.576;2022-12-18T00:36:10;-4.20;90.31
70928;SHT31;58587;53.034;18.576;2022-12-18T00:38:37;-4.27;90.56
70928;SHT31;58587;53.034;18.576;2022-12-18T00:41:02;-4.26;90.63
70928;SHT31;58587;53.034;18.576;2022-12-18T00:43:28;-4.27;90.76
70928;SHT31;58587;53.034;18.576;2022-12-18T00:45:53;-4.30;90.66
70928;SHT31;58587;53.034;18.576;2022-12-18T00:48:19;-4.27;90.82
70928;SHT31;58587;53.034;18.576;2022-12-18T00:50:44;-4.29;90.79
70928;SHT31;58587;53.034;18.576;2022-12-18T00:53:10;-4.29;91.24
70928;SHT31;58587;53.034;18.576;2022-12-18T00:55:37;-4.29;91.37
70928;SHT31;58587;53.034;18.576;2022-12-18T00:58:03;-4.27;91.43
70928;SHT31;58587;53.034;18.576;2022-12-18T01:00:29;-4.27;91.21
70928;SHT31;58587;53.034;18.576;2022-12-18T01:02:54;-4.29;91.08
70928;SHT31;58587;53.034;18.576;2022-12-18T01:05:19;-4.32;91.18
70928;SHT31;58587;53.034;18.576;2022-12-18T01:07:45;-4.29;91.21
70928;SHT31;58587;53.034;18.576;2022-12-18T01:10:12;-4.33;91.02
70928;SHT31;58587;53.034;18.576;2022-12-18T01:12:37;-4.32;91.25
70928;SHT31;58587;53.034;18.576;2022-12-18T01:15:04;-4.32;91.24
70928;SHT31;58587;53.034;18.576;2022-12-18T01:17:30;-4.33;91.23
70928;SHT31;58587;53.034;18.576;2022-12-18T01:19:55;-4.32;91.32
70928;SHT31;58587;53.034;18.576;2022-12-18T01:22:21;-4.32;91.20
70928;SHT31;58587;53.034;18.576;2022-12-18T01:24:46;-4.29;91.47
70928;SHT31;58587;53.034;18.576;2022-12-18T01:27:11;-4.29;91.88
70928;SHT31;58587;53.034;18.576;2022-12-18T01:29:37;-4.36;92.00
70928;SHT31;58587;53.034;18.576;2022-12-18T01:32:02;-4.29;92.21
70928;SHT31;58587;53.034;18.576;2022-12-18T01:34:27;-4.27;92.06
70928;SHT31;58587;53.034;18.576;2022-12-18T01:36:53;-4.30;92.28
70928;SHT31;58587;53.034;18.576;2022-12-18T01:39:19;-4.29;92.39
70928;SHT31;58587;53.034;18.576;2022-12-18T01:41:45;-4.26;92.23
70928;SHT31;58587;53.034;18.576;2022-12-18T01:44:54;-4.23;92.20
70928;SHT31;58587;53.034;18.576;2022-12-18T01:49:48;-4.23;91.90
70928;SHT31;58587;53.034;18.576;2022-12-18T01:52:14;-4.23;91.64
70928;SHT31;58587;53.034;18.576;2022-12-18T01:54:40;-4.20;91.66
70928;SHT31;58587;53.034;18.576;2022-12-18T01:57:06;-4.23;91.34
70928;SHT31;58587;53.034;18.576;2022-12-18T01:59:32;-4.23;91.50
70928;SHT31;58587;53.034;18.576;2022-12-18T02:01:59;-4.23;91.46
70928;SHT31;58587;53.034;18.576;2022-12-18T10:27:25;-4.44;90.58
70928;SHT31;58587;53.034;18.576;2022-12-18T10:29:52;-4.33;90.41
70928;SHT31;58587;53.034;18.576;2022-12-18T10:32:24;-4.37;89.70
70928;SHT31;58587;53.034;18.576;2022-12-18T10:34:51;-4.49;89.36
70928;SHT31;58587;53.034;18.576;2022-12-18T10:37:19;-4.64;89.81
70928;SHT31;58587;53.034;18.576;2022-12-18T10:39:46;-4.56;90.07
70928;SHT31;58587;53.034;18.576;2022-12-18T10:42:29;-4.64;89.95
70928;SHT31;58587;53.034;18.576;2022-12-18T10:45:03;-4.66;90.51
70928;SHT31;58587;53.034;18.576;2022-12-18T10:47:32;-4.57;90.18
70928;SHT31;58587;53.034;18.576;2022-12-18T10:49:58;-4.53;90.42
70928;SHT31;58587;53.034;18.576;2022-12-18T10:52:25;-4.61;90.13
70928;SHT31;58587;53.034;18.576;2022-12-18T10:55:01;-4.49;90.27
70928;SHT31;58587;53.034;18.576;2022-12-18T10:57:32;-4.56;89.95
70928;SHT31;58587;53.034;18.576;2022-12-18T10:59:59;-4.68;89.82
70928;SHT31;58587;53.034;18.576;2022-12-18T11:02:28;-4.54;90.29
70928;SHT31;58587;53.034;18.576;2022-12-18T11:04:58;-4.63;90.19
70928;SHT31;58587;53.034;18.576;2022-12-18T11:07:23;-4.68;89.96
70928;SHT31;58587;53.034;18.576;2022-12-18T11:09:59;-4.77;90.06
70928;SHT31;58587;53.034;18.576;2022-12-18T11:12:28;-4.85;90.88
70928;SHT31;58587;53.034;18.576;2022-12-18T11:14:55;-4.81;90.62
70928;SHT31;58587;53.034;18.576;2022-12-18T11:17:27;-4.83;90.83
70928;SHT31;58587;53.034;18.576;2022-12-18T11:19:57;-4.73;90.58
70928;SHT31;58587;53.034;18.576;2022-12-18T11:22:33;-4.71;90.75
70928;SHT31;58587;53.034;18.576;2022-12-18T11:25:18;-4.70;90.51
70928;SHT31;58587;53.034;18.576;2022-12-18T11:27:49;-4.78;90.34
70928;SHT31;58587;53.034;18.576;2022-12-18T11:30:36;-4.85;90.16
70928;SHT31;58587;53.034;18.576;2022-12-18T11:33:19;-4.77;90.69
70928;SHT31;58587;53.034;18.576;2022-12-18T11:36:00;-4.77;90.44
70928;SHT31;58587;53.034;18.576;2022-12-18T11:38:32;-4.67;90.54
70928;SHT31;58587;53.034;18.576;2022-12-18T11:41:03;-4.77;90.04
70928;SHT31;58587;53.034;18.576;2022-12-18T11:44:02;-4.87;90.45
70928;SHT31;58587;53.034;18.576;2022-12-18T11:46:38;-4.89;90.32
70928;SHT31;58587;53.034;18.576;2022-12-18T11:52:21;-4.92;90.27
70928;SHT31;58587;53.034;18.576;2022-12-18T11:54:51;-4.88;90.21
70928;SHT31;58587;53.034;18.576;2022-12-18T11:57:29;-4.80;90.31
70928;SHT31;58587;53.034;18.576;2022-12-18T12:05:32;-4.91;90.18
70928;SHT31;58587;53.034;18.576;2022-12-18T12:14:12;-4.76;90.15
70928;SHT31;58587;53.034;18.576;2022-12-18T12:16:57;-4.87;89.99
70928;SHT31;58587;53.034;18.576;2022-12-18T12:22:24;-4.98;90.33
70928;SHT31;58587;53.034;18.576;2022-12-18T12:25:51;-4.89;90.39
70928;SHT31;58587;53.034;18.576;2022-12-18T12:28:01;-4.94;90.08
70928;SHT31;58587;53.034;18.576;2022-12-18T12:38:33;-4.84;90.07
70928;SHT31;58587;53.034;18.576;2022-12-18T12:41:06;-4.81;90.26
70928;SHT31;58587;53.034;18.576;2022-12-18T12:43:56;-4.87;90.04
70928;SHT31;58587;53.034;18.576;2022-12-18T12:46:23;-4.85;90.01
70928;SHT31;58587;53.034;18.576;2022-12-18T12:48:56;-4.85;90.23
70928;SHT31;58587;53.034;18.576;2022-12-18T12:51:26;-4.91;90.00
70928;SHT31;58587;53.034;18.576;2022-12-18T12:53:54;-5.15;90.28
70928;SHT31;58587;53.034;18.576;2022-12-18T12:56:21;-5.07;90.07
70928;SHT31;58587;53.034;18.576;2022-12-18T13:01:28;-5.19;89.93
70928;SHT31;58587;53.034;18.576;2022-12-18T13:04:21;-5.21;90.49
70928;SHT31;58587;53.034;18.576;2022-12-18T13:07:35;-5.31;90.69
70928;SHT31;58587;53.034;18.576;2022-12-18T13:13:11;-5.43;90.66
70928;SHT31;58587;53.034;18.576;2022-12-18T13:15:48;-5.36;90.72
70928;SHT31;58587;53.034;18.576;2022-12-18T13:18:24;-5.32;91.16
70928;SHT31;58587;53.034;18.576;2022-12-18T13:31:13;-5.31;90.93
70928;SHT31;58587;53.034;18.576;2022-12-18T13:33:44;-5.29;91.33
70928;SHT31;58587;53.034;18.576;2022-12-18T13:41:42;-5.36;91.38
70928;SHT31;58587;53.034;18.576;2022-12-18T13:46:56;-5.32;91.43
70928;SHT31;58587;53.034;18.576;2022-12-18T13:49:26;-5.33;91.16
70928;SHT31;58587;53.034;18.576;2022-12-18T13:51:55;-5.33;91.34
70928;SHT31;58587;53.034;18.576;2022-12-18T13:54:32;-5.28;91.06
70928;SHT31;58587;53.034;18.576;2022-12-18T13:56:58;-5.29;91.20
70928;SHT31;58587;53.034;18.576;2022-12-18T13:59:35;-5.36;91.08
70928;SHT31;58587;53.034;18.576;2022-12-18T14:02:14;-5.35;91.32
70928;SHT31;58587;53.034;18.576;2022-12-18T14:04:40;-5.36;91.21
70928;SHT31;58587;53.034;18.576;2022-12-18T14:07:17;-5.38;91.18
70928;SHT31;58587;53.034;18.576;2022-12-18T14:09:45;-5.35;91.14
70928;SHT31;58587;53.034;18.576;2022-12-18T14:12:25;-5.33;91.12
70928;SHT31;58587;53.034;18.576;2022-12-18T14:17:54;-5.35;91.71
70928;SHT31;58587;53.034;18.576;2022-12-18T14:20:21;-5.35;91.20
70928;SHT31;58587;53.034;18.576;2022-12-18T14:22:48;-5.32;90.82
70928;SHT31;58587;53.034;18.576;2022-12-18T14:25:21;-5.26;90.94
70928;SHT31;58587;53.034;18.576;2022-12-18T14:27:50;-5.32;90.28
70928;SHT31;58587;53.034;18.576;2022-12-18T14:30:31;-5.39;90.48
70928;SHT31;58587;53.034;18.576;2022-12-18T14:33:17;-5.53;91.18
70928;SHT31;58587;53.034;18.576;2022-12-18T14:36:04;-5.51;91.52
70928;SHT31;58587;53.034;18.576;2022-12-18T14:38:30;-5.55;91.68
70928;SHT31;58587;53.034;18.576;2022-12-18T14:43:26;-5.52;91.58
70928;SHT31;58587;53.034;18.576;2022-12-18T14:45:52;-5.59;92.18
70928;SHT31;58587;53.034;18.576;2022-12-18T14:53:34;-5.58;91.64
70928;SHT31;58587;53.034;18.576;2022-12-18T14:56:00;-5.44;91.64
70928;SHT31;58587;53.034;18.576;2022-12-18T14:58:26;-5.49;91.40
70928;SHT31;58587;53.034;18.576;2022-12-18T15:00:51;-5.52;91.24
70928;SHT31;58587;53.034;18.576;2022-12-18T15:03:21;-5.58;91.31
70928;SHT31;58587;53.034;18.576;2022-12-18T15:05:47;-5.58;91.57
70928;SHT31;58587;53.034;18.576;2022-12-18T15:08:30;-5.44;91.53
70928;SHT31;58587;53.034;18.576;2022-12-18T15:10:56;-5.49;91.27
70928;SHT31;58587;53.034;18.576;2022-12-18T15:13:24;-5.42;91.15
70928;SHT31;58587;53.034;18.576;2022-12-18T15:15:50;-5.39;90.93
70928;SHT31;58587;53.034;18.576;2022-12-18T15:18:18;-5.60;91.47
70928;SHT31;58587;53.034;18.576;2022-12-18T15:20:49;-5.42;91.78
70928;SHT31;58587;53.034;18.576;2022-12-18T15:23:24;-5.48;91.39
70928;SHT31;58587;53.034;18.576;2022-12-18T15:26:05;-5.36;91.71
70928;SHT31;58587;53.034;18.576;2022-12-18T15:33:42;-5.48;91.67
70928;SHT31;58587;53.034;18.576;2022-12-18T15:36:12;-5.44;91.31
70928;SHT31;58587;53.034;18.576;2022-12-18T15:38:38;-5.52;91.18
70928;SHT31;58587;53.034;18.576;2022-12-18T15:41:03;-5.52;91.54
70928;SHT31;58587;53.034;18.576;2022-12-18T15:43:29;-5.58;91.52
70928;SHT31;58587;53.034;18.576;2022-12-18T15:46:05;-5.58;91.95
70928;SHT31;58587;53.034;18.576;2022-12-18T15:48:33;-5.51;91.63
70928;SHT31;58587;53.034;18.576;2022-12-18T15:51:00;-5.56;91.78
70928;SHT31;58587;53.034;18.576;2022-12-18T15:53:30;-5.52;91.72
70928;SHT31;58587;53.034;18.576;2022-12-18T15:55:57;-5.43;91.74
70928;SHT31;58587;53.034;18.576;2022-12-18T15:58:40;-5.40;91.36
70928;SHT31;58587;53.034;18.576;2022-12-18T16:01:07;-5.32;91.45
70928;SHT31;58587;53.034;18.576;2022-12-18T16:03:33;-5.38;91.14
70928;SHT31;58587;53.034;18.576;2022-12-18T16:05:59;-5.36;91.54
70928;SHT31;58587;53.034;18.576;2022-12-18T16:08:29;-5.35;91.23
70928;SHT31;58587;53.034;18.576;2022-12-18T16:10:56;-5.36;90.66
70928;SHT31;58587;53.034;18.576;2022-12-18T16:13:21;-5.44;90.95
70928;SHT31;58587;53.034;18.576;2022-12-18T16:15:47;-5.42;91.46
70928;SHT31;58587;53.034;18.576;2022-12-18T16:18:12;-5.51;90.96
70928;SHT31;58587;53.034;18.576;2022-12-18T16:20:38;-5.49;91.06
70928;SHT31;58587;53.034;18.576;2022-12-18T16:23:04;-5.49;91.21
70928;SHT31;58587;53.034;18.576;2022-12-18T16:25:29;-5.52;91.32
70928;SHT31;58587;53.034;18.576;2022-12-18T16:27:55;-5.48;91.32
70928;SHT31;58587;53.034;18.576;2022-12-18T16:30:27;-5.38;91.14
70928;SHT31;58587;53.034;18.576;2022-12-18T16:32:54;-5.44;91.13
70928;SHT31;58587;53.034;18.576;2022-12-18T16:35:19;-5.49;91.16
70928;SHT31;58587;53.034;18.576;2022-12-18T16:37:45;-5.58;91.40
70928;SHT31;58587;53.034;18.576;2022-12-18T16:40:13;-5.55;91.48
70928;SHT31;58587;53.034;18.576;2022-12-18T16:42:39;-5.53;91.53
70928;SHT31;58587;53.034;18.576;2022-12-18T16:45:07;-5.53;91.40
70928;SHT31;58587;53.034;18.576;2022-12-18T16:47:33;-5.55;91.46
70928;SHT31;58587;53.034;18.576;2022-12-18T16:49:59;-5.52;91.47
70928;SHT31;58587;53.034;18.576;2022-12-18T16:52:24;-5.62;91.44
70928;SHT31;58587;53.034;18.576;2022-12-18T16:54:49;-5.67;91.49
70928;SHT31;58587;53.034;18.576;2022-12-18T16:57:17;-5.52;91.44
70928;SHT31;58587;53.034;18.576;2022-12-18T16:59:43;-5.51;91.43
70928;SHT31;58587;53.034;18.576;2022-12-18T17:02:14;-5.44;91.16
70928;SHT31;58587;53.034;18.576;2022-12-18T17:04:40;-5.51;91.37
70928;SHT31;58587;53.034;18.576;2022-12-18T17:07:06;-5.51;91.34
70928;SHT31;58587;53.034;18.576;2022-12-18T17:09:31;-5.59;91.30
70928;SHT31;58587;53.034;18.576;2022-12-18T17:11:56;-5.56;91.49
70928;SHT31;58587;53.034;18.576;2022-12-18T17:14:23;-5.53;91.10
70928;SHT31;58587;53.034;18.576;2022-12-18T17:16:50;-5.56;91.07
70928;SHT31;58587;53.034;18.576;2022-12-18T17:19:15;-5.55;90.82
70928;SHT31;58587;53.034;18.576;2022-12-18T17:21:42;-5.53;90.36
70928;SHT31;58587;53.034;18.576;2022-12-18T17:24:07;-5.66;90.60
70928;SHT31;58587;53.034;18.576;2022-12-18T17:26:33;-5.77;91.42
70928;SHT31;58587;53.034;18.576;2022-12-18T17:28:58;-5.73;91.62
70928;SHT31;58587;53.034;18.576;2022-12-18T17:31:25;-5.67;91.23
70928;SHT31;58587;53.034;18.576;2022-12-18T17:33:51;-5.72;91.21
70928;SHT31;58587;53.034;18.576;2022-12-18T17:36:17;-5.80;91.79
70928;SHT31;58587;53.034;18.576;2022-12-18T17:38:52;-5.70;91.90
70928;SHT31;58587;53.034;18.576;2022-12-18T17:41:18;-5.64;91.51
70928;SHT31;58587;53.034;18.576;2022-12-18T17:43:45;-5.55;91.09
70928;SHT31;58587;53.034;18.576;2022-12-18T17:46:14;-5.72;91.42
70928;SHT31;58587;53.034;18.576;2022-12-18T17:48:40;-5.59;91.02
70928;SHT31;58587;53.034;18.576;2022-12-18T17:51:08;-5.64;90.46
70928;SHT31;58587;53.034;18.576;2022-12-18T17:53:35;-5.64;90.42
70928;SHT31;58587;53.034;18.576;2022-12-18T17:56:01;-5.74;90.75
70928;SHT31;58587;53.034;18.576;2022-12-18T17:58:29;-5.83;90.56
70928;SHT31;58587;53.034;18.576;2022-12-18T18:00:55;-5.89;90.50
70928;SHT31;58587;53.034;18.576;2022-12-18T18:03:21;-5.94;90.50
70928;SHT31;58587;53.034;18.576;2022-12-18T18:05:47;-5.98;91.02
70928;SHT31;58587;53.034;18.576;2022-12-18T18:08:12;-5.98;91.03
70928;SHT31;58587;53.034;18.576;2022-12-18T18:10:38;-5.91;91.17
70928;SHT31;58587;53.034;18.576;2022-12-18T18:13:06;-5.87;90.94
70928;SHT31;58587;53.034;18.576;2022-12-18T18:15:56;-5.97;90.69
70928;SHT31;58587;53.034;18.576;2022-12-18T18:18:22;-6.08;90.98
70928;SHT31;58587;53.034;18.576;2022-12-18T18:20:47;-6.11;90.91
70928;SHT31;58587;53.034;18.576;2022-12-18T18:23:12;-6.11;91.26
70928;SHT31;58587;53.034;18.576;2022-12-18T18:25:38;-6.14;91.02
70928;SHT31;58587;53.034;18.576;2022-12-18T18:28:03;-6.11;90.91
70928;SHT31;58587;53.034;18.576;2022-12-18T18:30:29;-6.13;90.75
70928;SHT31;58587;53.034;18.576;2022-12-18T18:32:54;-6.21;90.68
70928;SHT31;58587;53.034;18.576;2022-12-18T18:35:19;-6.20;91.07
70928;SHT31;58587;53.034;18.576;2022-12-18T18:37:47;-6.18;90.89
70928;SHT31;58587;53.034;18.576;2022-12-18T18:40:12;-6.17;90.77
70928;SHT31;58587;53.034;18.576;2022-12-18T18:42:38;-6.29;90.36
70928;SHT31;58587;53.034;18.576;2022-12-18T18:45:03;-6.48;90.96
70928;SHT31;58587;53.034;18.576;2022-12-18T18:47:31;-6.45;91.56
70928;SHT31;58587;53.034;18.576;2022-12-18T18:49:56;-6.48;91.66
70928;SHT31;58587;53.034;18.576;2022-12-18T18:52:22;-6.45;91.75
70928;SHT31;58587;53.034;18.576;2022-12-18T18:54:47;-6.45;91.98
70928;SHT31;58587;53.034;18.576;2022-12-18T18:57:13;-6.32;91.86
70928;SHT31;58587;53.034;18.576;2022-12-18T18:59:39;-6.45;91.64
70928;SHT31;58587;53.034;18.576;2022-12-18T19:02:05;-6.31;91.87
70928;SHT31;58587;53.034;18.576;2022-12-18T19:04:32;-6.22;91.53
70928;SHT31;58587;53.034;18.576;2022-12-18T19:06:58;-6.17;91.36
70928;SHT31;58587;53.034;18.576;2022-12-18T19:09:23;-6.22;90.92
70928;SHT31;58587;53.034;18.576;2022-12-18T19:11:48;-6.25;91.18
70928;SHT31;58587;53.034;18.576;2022-12-18T19:14:32;-6.20;90.98
70928;SHT31;58587;53.034;18.576;2022-12-18T19:16:57;-6.20;90.59
70928;SHT31;58587;53.034;18.576;2022-12-18T19:19:23;-6.35;90.60
70928;SHT31;58587;53.034;18.576;2022-12-18T19:21:49;-6.24;90.85
70928;SHT31;58587;53.034;18.576;2022-12-18T19:24:14;-6.25;90.80
70928;SHT31;58587;53.034;18.576;2022-12-18T19:26:40;-6.22;90.53
70928;SHT31;58587;53.034;18.576;2022-12-18T19:29:07;-6.27;90.50
70928;SHT31;58587;53.034;18.576;2022-12-18T19:31:33;-6.34;89.98
70928;SHT31;58587;53.034;18.576;2022-12-18T19:33:58;-6.32;90.31
70928;SHT31;58587;53.034;18.576;2022-12-18T19:36:26;-6.35;90.12
70928;SHT31;58587;53.034;18.576;2022-12-18T19:38:54;-6.34;90.00
70928;SHT31;58587;53.034;18.576;2022-12-18T19:41:20;-6.58;89.99
70928;SHT31;58587;53.034;18.576;2022-12-18T19:43:46;-6.62;90.72
70928;SHT31;58587;53.034;18.576;2022-12-18T19:46:13;-6.55;90.92
70928;SHT31;58587;53.034;18.576;2022-12-18T19:48:40;-6.49;90.58
70928;SHT31;58587;53.034;18.576;2022-12-18T19:51:07;-6.49;90.58
70928;SHT31;58587;53.034;18.576;2022-12-18T19:53:33;-6.46;90.49
70928;SHT31;58587;53.034;18.576;2022-12-18T19:56:06;-6.42;90.61
70928;SHT31;58587;53.034;18.576;2022-12-18T19:58:32;-6.41;90.50
70928;SHT31;58587;53.034;18.576;2022-12-18T20:00:57;-6.32;90.34
70928;SHT31;58587;53.034;18.576;2022-12-18T20:03:23;-6.35;90.43
70928;SHT31;58587;53.034;18.576;2022-12-18T20:05:48;-6.37;90.45
70928;SHT31;58587;53.034;18.576;2022-12-18T20:08:14;-6.31;90.11
70928;SHT31;58587;53.034;18.576;2022-12-18T20:10:39;-6.42;89.56
70928;SHT31;58587;53.034;18.576;2022-12-18T20:13:04;-6.50;90.26
70928;SHT31;58587;53.034;18.576;2022-12-18T20:15:30;-6.62;90.46
70928;SHT31;58587;53.034;18.576;2022-12-18T20:17:56;-6.61;90.74
70928;SHT31;58587;53.034;18.576;2022-12-18T20:20:21;-6.58;90.82
70928;SHT31;58587;53.034;18.576;2022-12-18T20:22:46;-6.59;90.94
70928;SHT31;58587;53.034;18.576;2022-12-18T20:25:12;-6.65;90.96
70928;SHT31;58587;53.034;18.576;2022-12-18T20:27:37;-6.58;91.16
70928;SHT31;58587;53.034;18.576;2022-12-18T20:30:03;-6.57;90.90
70928;SHT31;58587;53.034;18.576;2022-12-18T20:32:29;-6.49;90.87
70928;SHT31;58587;53.034;18.576;2022-12-18T20:34:54;-6.50;90.67
70928;SHT31;58587;53.034;18.576;2022-12-18T20:37:19;-6.49;90.89
70928;SHT31;58587;53.034;18.576;2022-12-18T20:39:45;-6.52;90.76
70928;SHT31;58587;53.034;18.576;2022-12-18T20:42:10;-6.67;91.20
70928;SHT31;58587;53.034;18.576;2022-12-18T20:44:35;-6.64;91.51
70928;SHT31;58587;53.034;18.576;2022-12-18T20:47:01;-6.64;91.66
70928;SHT31;58587;53.034;18.576;2022-12-18T20:49:28;-6.58;91.52
70928;SHT31;58587;53.034;18.576;2022-12-18T20:51:55;-6.58;91.56
70928;SHT31;58587;53.034;18.576;2022-12-18T20:54:22;-6.55;91.40
70928;SHT31;58587;53.034;18.576;2022-12-18T20:56:48;-6.58;91.65
70928;SHT31;58587;53.034;18.576;2022-12-18T20:59:15;-6.61;91.87
70928;SHT31;58587;53.034;18.576;2022-12-18T21:01:41;-6.50;91.55
70928;SHT31;58587;53.034;18.576;2022-12-18T21:04:07;-6.45;91.17
70928;SHT31;58587;53.034;18.576;2022-12-18T21:06:33;-6.48;91.18
70928;SHT31;58587;53.034;18.576;2022-12-18T21:08:58;-6.48;91.53
70928;SHT31;58587;53.034;18.576;2022-12-18T21:11:27;-6.53;91.63
70928;SHT31;58587;53.034;18.576;2022-12-18T21:14:16;-6.50;91.49
70928;SHT31;58587;53.034;18.576;2022-12-18T21:16:43;-6.55;91.76
70928;SHT31;58587;53.034;18.576;2022-12-18T21:19:13;-6.57;91.70
70928;SHT31;58587;53.034;18.576;2022-12-18T21:21:39;-6.53;91.50
70928;SHT31;58587;53.034;18.576;2022-12-18T21:24:05;-6.48;91.38
70928;SHT31;58587;53.034;18.576;2022-12-18T21:26:30;-6.49;91.19
70928;SHT31;58587;53.034;18.576;2022-12-18T21:28:58;-6.45;91.14
70928;SHT31;58587;53.034;18.576;2022-12-18T21:31:27;-6.55;90.93
70928;SHT31;58587;53.034;18.576;2022-12-18T21:33:52;-6.55;91.02
70928;SHT31;58587;53.034;18.576;2022-12-18T21:36:18;-6.58;91.22
70928;SHT31;58587;53.034;18.576;2022-12-18T21:38:43;-6.49;91.24
70928;SHT31;58587;53.034;18.576;2022-12-18T21:41:10;-6.45;91.04
70928;SHT31;58587;53.034;18.576;2022-12-18T21:43:56;-6.55;90.97
70928;SHT31;58587;53.034;18.576;2022-12-18T21:46:30;-6.49;91.28
70928;SHT31;58587;53.034;18.576;2022-12-18T21:48:55;-6.59;91.58
70928;SHT31;58587;53.034;18.576;2022-12-18T21:51:20;-6.45;91.35
70928;SHT31;58587;53.034;18.576;2022-12-18T21:53:46;-6.41;91.24
70928;SHT31;58587;53.034;18.576;2022-12-18T21:56:11;-6.38;91.17
70928;SHT31;58587;53.034;18.576;2022-12-18T21:58:36;-6.48;91.34
70928;SHT31;58587;53.034;18.576;2022-12-18T22:01:02;-6.45;91.28
70928;SHT31;58587;53.034;18.576;2022-12-18T22:03:27;-6.49;91.14
70928;SHT31;58587;53.034;18.576;2022-12-18T22:05:56;-6.42;91.34
70928;SHT31;58587;53.034;18.576;2022-12-18T22:08:22;-6.45;91.07
70928;SHT31;58587;53.034;18.576;2022-12-18T22:10:47;-6.35;90.91
70928;SHT31;58587;53.034;18.576;2022-12-18T22:13:12;-6.45;90.80
70928;SHT31;58587;53.034;18.576;2022-12-18T22:15:37;-6.42;90.91
70928;SHT31;58587;53.034;18.576;2022-12-18T22:18:03;-6.45;90.95
70928;SHT31;58587;53.034;18.576;2022-12-18T22:20:28;-6.39;91.03
70928;SHT31;58587;53.034;18.576;2022-12-18T22:22:53;-6.39;90.93
70928;SHT31;58587;53.034;18.576;2022-12-18T22:25:19;-6.44;90.65
70928;SHT31;58587;53.034;18.576;2022-12-18T22:27:44;-6.39;90.76
70928;SHT31;58587;53.034;18.576;2022-12-18T22:30:33;-6.42;90.81
70928;SHT31;58587;53.034;18.576;2022-12-18T22:32:58;-6.39;90.89
70928;SHT31;58587;53.034;18.576;2022-12-18T22:35:23;-6.37;90.31
70928;SHT31;58587;53.034;18.576;2022-12-18T22:37:49;-6.32;90.82
70928;SHT31;58587;53.034;18.576;2022-12-18T22:40:20;-6.28;90.66
70928;SHT31;58587;53.034;18.576;2022-12-18T22:42:45;-6.34;90.47
70928;SHT31;58587;53.034;18.576;2022-12-18T22:45:11;-6.25;90.67
70928;SHT31;58587;53.034;18.576;2022-12-18T22:47:36;-6.28;90.20
70928;SHT31;58587;53.034;18.576;2022-12-18T22:50:02;-6.29;90.32
70928;SHT31;58587;53.034;18.576;2022-12-18T22:52:27;-6.24;90.23
70928;SHT31;58587;53.034;18.576;2022-12-18T22:54:53;-6.20;90.20
70928;SHT31;58587;53.034;18.576;2022-12-18T22:57:18;-6.27;90.05
70928;SHT31;58587;53.034;18.576;2022-12-18T22:59:43;-6.22;90.31
70928;SHT31;58587;53.034;18.576;2022-12-18T23:02:09;-6.20;90.18
70928;SHT31;58587;53.034;18.576;2022-12-18T23:04:34;-6.28;90.12
70928;SHT31;58587;53.034;18.576;2022-12-18T23:07:00;-6.28;90.64
70928;SHT31;58587;53.034;18.576;2022-12-18T23:09:26;-6.24;90.29
70928;SHT31;58587;53.034;18.576;2022-12-18T23:11:51;-6.21;90.22
70928;SHT31;58587;53.034;18.576;2022-12-18T23:14:16;-6.18;90.27
70928;SHT31;58587;53.034;18.576;2022-12-18T23:16:42;-6.28;90.29
70928;SHT31;58587;53.034;18.576;2022-12-18T23:19:07;-6.34;90.35
70928;SHT31;58587;53.034;18.576;2022-12-18T23:21:33;-6.27;90.28
70928;SHT31;58587;53.034;18.576;2022-12-18T23:23:58;-6.35;90.41
70928;SHT31;58587;53.034;18.576;2022-12-18T23:26:24;-6.37;90.75
70928;SHT31;58587;53.034;18.576;2022-12-18T23:28:51;-6.37;90.63
70928;SHT31;58587;53.034;18.576;2022-12-18T23:31:19;-6.28;90.64
70928;SHT31;58587;53.034;18.576;2022-12-18T23:33:46;-6.22;90.44
70928;SHT31;58587;53.034;18.576;2022-12-18T23:36:12;-6.18;90.46
70928;SHT31;58587;53.034;18.576;2022-12-18T23:38:38;-6.22;90.08
70928;SHT31;58587;53.034;18.576;2022-12-18T23:41:13;-6.21;90.02
70928;SHT31;58587;53.034;18.576;2022-12-18T23:43:42;-6.17;89.77
70928;SHT31;58587;53.034;18.576;2022-12-18T23:46:34;-6.28;90.15
70928;SHT31;58587;53.034;18.576;2022-12-18T23:49:04;-6.31;89.80
70928;SHT31;58587;53.034;18.576;2022-12-18T23:51:30;-6.29;90.10
70928;SHT31;58587;53.034;18.576;2022-12-18T23:53:57;-6.32;90.15
70928;SHT31;58587;53.034;18.576;2022-12-18T23:56:23;-6.37;90.12
70928;SHT31;58587;53.034;18.576;2022-12-18T23:58:49;-6.35;90.27
